sensor_id;sensor_type;location;lat;lon;timestamp;pressure;altitude;pressure_sealevel;temperature;humidity
40948;BME280;49382;-25.924;28.194;2023-02-19T00:01:12;84704.38;;;23.16;47.82
40948;BME280;49382;-25.924;28.194;2023-02-19T00:03:36;84701.41;;;22.75;48.35
40948;BME280;49382;-25.924;28.194;2023-02-19T00:06:02;84698.15;;;22.91;48.47
40948;BME280;49382;-25.924;28.194;2023-02-19T00:08:29;84696.28;;;23.47;47.38
40948;BME280;49382;-25.924;28.194;2023-02-19T00:10:53;84697.93;;;23.40;46.63
40948;BME280;49382;-25.924;28.194;2023-02-19T00:13:18;84698.74;;;22.59;48.81
40948;BME280;49382;-25.924;28.194;2023-02-19T00:15:43;84699.07;;;21.78;50.30
40948;BME280;49382;-25.924;28.194;2023-02-19T00:18:09;84697.94;;;21.45;50.65
40948;BME280;49382;-25.924;28.194;2023-02-19T00:20:35;84694.31;;;22.28;49.56
40948;BME280;49382;-25.924;28.194;2023-02-19T00:23:00;84695.99;;;22.93;48.55
40948;BME280;49382;-25.924;28.194;2023-02-19T00:25:25;84695.32;;;22.85;48.58
40948;BME280;49382;-25.924;28.194;2023-02-19T00:27:50;84696.30;;;21.78;50.77
40948;BME280;49382;-25.924;28.194;2023-02-19T00:30:16;84699.21;;;23.22;47.80
40948;BME280;49382;-25.924;28.194;2023-02-19T00:32:41;84699.44;;;23.64;47.15
40948;BME280;49382;-25.924;28.194;2023-02-19T00:35:07;84696.23;;;21.58;50.78
40948;BME280;49382;-25.924;28.194;2023-02-19T00:37:32;84692.87;;;22.70;49.25
40948;BME280;49382;-25.924;28.194;2023-02-19T00:39:58;84692.66;;;22.53;49.17
40948;BME280;49382;-25.924;28.194;2023-02-19T00:42:23;84696.11;;;22.45;49.44
40948;BME280;49382;-25.924;28.194;2023-02-19T00:44:49;84694.44;;;23.36;47.34
40948;BME280;49382;-25.924;28.194;2023-02-19T00:47:14;84692.48;;;23.53;46.87
40948;BME280;49382;-25.924;28.194;2023-02-19T00:49:39;84683.74;;;22.84;48.05
40948;BME280;49382;-25.924;28.194;2023-02-19T00:52:05;84680.13;;;23.37;47.32
40948;BME280;49382;-25.924;28.194;2023-02-19T00:54:30;84675.79;;;23.20;48.00
40948;BME280;49382;-25.924;28.194;2023-02-19T00:56:55;84675.80;;;23.17;47.01
40948;BME280;49382;-25.924;28.194;2023-02-19T00:59:21;84673.12;;;23.02;47.22
40948;BME280;49382;-25.924;28.194;2023-02-19T01:01:46;84670.37;;;22.21;48.95
40948;BME280;49382;-25.924;28.194;2023-02-19T01:04:11;84666.05;;;22.07;49.64
40948;BME280;49382;-25.924;28.194;2023-02-19T01:06:36;84661.38;;;20.88;52.65
40948;BME280;49382;-25.924;28.194;2023-02-19T01:09:03;84664.42;;;22.85;48.72
40948;BME280;49382;-25.924;28.194;2023-02-19T01:11:28;84667.95;;;22.36;48.59
40948;BME280;49382;-25.924;28.194;2023-02-19T01:13:56;84673.36;;;21.96;50.13
40948;BME280;49382;-25.924;28.194;2023-02-19T01:16:20;84674.10;;;22.68;48.58
40948;BME280;49382;-25.924;28.194;2023-02-19T01:18:44;84673.40;;;22.64;48.88
40948;BME280;49382;-25.924;28.194;2023-02-19T01:21:13;84673.46;;;23.20;46.94
40948;BME280;49382;-25.924;28.194;2023-02-19T01:23:35;84672.02;;;22.93;47.86
40948;BME280;49382;-25.924;28.194;2023-02-19T01:26:02;84672.76;;;22.84;47.34
40948;BME280;49382;-25.924;28.194;2023-02-19T01:28:25;84672.35;;;23.49;47.20
40948;BME280;49382;-25.924;28.194;2023-02-19T01:30:50;84669.19;;;22.85;47.19
40948;BME280;49382;-25.924;28.194;2023-02-19T01:33:15;84663.47;;;24.00;45.43
40948;BME280;49382;-25.924;28.194;2023-02-19T01:35:41;84663.43;;;22.84;47.82
40948;BME280;49382;-25.924;28.194;2023-02-19T01:38:06;84667.25;;;22.69;48.31
40948;BME280;49382;-25.924;28.194;2023-02-19T01:40:32;84667.99;;;23.46;47.15
40948;BME280;49382;-25.924;28.194;2023-02-19T01:42:57;84667.90;;;21.70;50.40
40948;BME280;49382;-25.924;28.194;2023-02-19T01:45:27;84669.78;;;23.22;47.33
40948;BME280;49382;-25.924;28.194;2023-02-19T01:47:53;84666.96;;;23.69;46.37
40948;BME280;49382;-25.924;28.194;2023-02-19T01:50:13;84664.77;;;21.95;49.87
40948;BME280;49382;-25.924;28.194;2023-02-19T01:52:38;84663.01;;;23.45;47.16
40948;BME280;49382;-25.924;28.194;2023-02-19T01:55:07;84662.47;;;22.99;47.87
40948;BME280;49382;-25.924;28.194;2023-02-19T01:57:32;84663.06;;;23.13;47.27
40948;BME280;49382;-25.924;28.194;2023-02-19T01:59:57;84661.41;;;23.17;47.21
40948;BME280;49382;-25.924;28.194;2023-02-19T02:02:20;84664.65;;;21.74;49.97
40948;BME280;49382;-25.924;28.194;2023-02-19T02:04:45;84663.21;;;23.06;47.66
40948;BME280;49382;-25.924;28.194;2023-02-19T02:07:11;84665.09;;;23.23;47.17
40948;BME280;49382;-25.924;28.194;2023-02-19T02:09:36;84664.35;;;23.13;47.59
40948;BME280;49382;-25.924;28.194;2023-02-19T02:12:02;84666.93;;;23.64;46.68
40948;BME280;49382;-25.924;28.194;2023-02-19T02:14:32;84664.86;;;22.40;48.78
40948;BME280;49382;-25.924;28.194;2023-02-19T02:16:59;84663.98;;;23.59;46.76
40948;BME280;49382;-25.924;28.194;2023-02-19T02:19:31;84662.14;;;22.06;49.54
40948;BME280;49382;-25.924;28.194;2023-02-19T02:21:56;84658.86;;;22.03;49.89
40948;BME280;49382;-25.924;28.194;2023-02-19T02:26:45;84654.36;;;22.51;49.05
40948;BME280;49382;-25.924;28.194;2023-02-19T02:31:31;84657.28;;;22.19;49.62
40948;BME280;49382;-25.924;28.194;2023-02-19T02:33:56;84658.70;;;21.00;51.97
40948;BME280;49382;-25.924;28.194;2023-02-19T02:36:20;84659.18;;;22.84;48.70
40948;BME280;49382;-25.924;28.194;2023-02-19T02:38:45;84661.74;;;22.05;51.00
40948;BME280;49382;-25.924;28.194;2023-02-19T02:41:11;84660.82;;;22.39;49.59
40948;BME280;49382;-25.924;28.194;2023-02-19T02:43:35;84662.31;;;22.05;50.25
40948;BME280;49382;-25.924;28.194;2023-02-19T02:46:00;84662.62;;;22.00;50.48
40948;BME280;49382;-25.924;28.194;2023-02-19T02:48:31;84663.79;;;22.29;49.89
40948;BME280;49382;-25.924;28.194;2023-02-19T02:50:55;84664.13;;;21.51;51.03
40948;BME280;49382;-25.924;28.194;2023-02-19T02:53:20;84664.50;;;20.91;52.91
40948;BME280;49382;-25.924;28.194;2023-02-19T02:55:45;84667.61;;;21.58;51.76
40948;BME280;49382;-25.924;28.194;2023-02-19T02:58:08;84663.29;;;21.39;52.14
40948;BME280;49382;-25.924;28.194;2023-02-19T03:00:35;84661.43;;;21.41;52.48
40948;BME280;49382;-25.924;28.194;2023-02-19T03:02:59;84655.88;;;20.74;52.95
40948;BME280;49382;-25.924;28.194;2023-02-19T03:05:25;84656.97;;;21.45;52.73
40948;BME280;49382;-25.924;28.194;2023-02-19T03:07:53;84662.33;;;20.83;54.39
40948;BME280;49382;-25.924;28.194;2023-02-19T03:10:18;84664.49;;;20.35;55.22
40948;BME280;49382;-25.924;28.194;2023-02-19T03:12:43;84667.07;;;21.94;51.58
40948;BME280;49382;-25.924;28.194;2023-02-19T03:15:09;84669.34;;;21.70;51.62
40948;BME280;49382;-25.924;28.194;2023-02-19T03:17:35;84673.01;;;21.79;50.89
40948;BME280;49382;-25.924;28.194;2023-02-19T03:19:58;84671.63;;;21.48;51.52
40948;BME280;49382;-25.924;28.194;2023-02-19T03:22:26;84675.12;;;21.55;51.74
40948;BME280;49382;-25.924;28.194;2023-02-19T03:24:51;84678.23;;;21.31;52.92
40948;BME280;49382;-25.924;28.194;2023-02-19T03:27:15;84681.05;;;20.39;55.19
40948;BME280;49382;-25.924;28.194;2023-02-19T03:29:39;84680.94;;;20.75;54.69
40948;BME280;49382;-25.924;28.194;2023-02-19T03:32:09;84680.28;;;20.68;54.28
40948;BME280;49382;-25.924;28.194;2023-02-19T03:34:33;84682.77;;;21.03;54.05
40948;BME280;49382;-25.924;28.194;2023-02-19T03:37:01;84680.63;;;21.51;52.93
40948;BME280;49382;-25.924;28.194;2023-02-19T03:39:23;84684.30;;;20.82;54.67
40948;BME280;49382;-25.924;28.194;2023-02-19T03:41:55;84683.18;;;20.75;54.53
40948;BME280;49382;-25.924;28.194;2023-02-19T03:44:16;84688.46;;;20.52;55.51
40948;BME280;49382;-25.924;28.194;2023-02-19T03:46:45;84691.59;;;20.76;55.01
40948;BME280;49382;-25.924;28.194;2023-02-19T03:49:09;84692.46;;;20.34;55.84
40948;BME280;49382;-25.924;28.194;2023-02-19T03:51:33;84690.97;;;20.20;56.23
40948;BME280;49382;-25.924;28.194;2023-02-19T03:54:03;84694.16;;;19.90;55.69
40948;BME280;49382;-25.924;28.194;2023-02-19T03:56:27;84693.74;;;20.31;55.95
40948;BME280;49382;-25.924;28.194;2023-02-19T03:58:53;84695.71;;;20.84;54.08
40948;BME280;49382;-25.924;28.194;2023-02-19T04:01:18;84694.69;;;21.39;53.20
40948;BME280;49382;-25.924;28.194;2023-02-19T04:03:40;84696.69;;;20.61;54.59
40948;BME280;49382;-25.924;28.194;2023-02-19T04:06:10;84696.32;;;20.98;54.14
40948;BME280;49382;-25.924;28.194;2023-02-19T04:08:33;84699.90;;;20.37;55.09
40948;BME280;49382;-25.924;28.194;2023-02-19T04:10:58;84701.71;;;21.57;52.68
40948;BME280;49382;-25.924;28.194;2023-02-19T04:13:25;84704.16;;;20.71;55.69
40948;BME280;49382;-25.924;28.194;2023-02-19T04:15:50;84703.92;;;20.17;56.89
40948;BME280;49382;-25.924;28.194;2023-02-19T04:18:15;84702.62;;;20.96;54.81
40948;BME280;49382;-25.924;28.194;2023-02-19T04:20:41;84702.96;;;20.99;54.20
40948;BME280;49382;-25.924;28.194;2023-02-19T04:23:04;84706.14;;;20.27;55.74
40948;BME280;49382;-25.924;28.194;2023-02-19T04:25:30;84709.27;;;20.68;55.28
40948;BME280;49382;-25.924;28.194;2023-02-19T04:27:55;84712.57;;;20.39;55.54
40948;BME280;49382;-25.924;28.194;2023-02-19T04:30:21;84713.43;;;19.88;57.07
40948;BME280;49382;-25.924;28.194;2023-02-19T04:32:47;84712.92;;;19.81;58.46
40948;BME280;49382;-25.924;28.194;2023-02-19T04:35:13;84713.45;;;20.24;56.47
40948;BME280;49382;-25.924;28.194;2023-02-19T04:37:38;84716.34;;;20.98;55.52
40948;BME280;49382;-25.924;28.194;2023-02-19T04:40:04;84716.94;;;20.34;56.20
40948;BME280;49382;-25.924;28.194;2023-02-19T04:42:30;84721.11;;;20.50;56.42
40948;BME280;49382;-25.924;28.194;2023-02-19T04:44:56;84726.86;;;20.95;54.37
40948;BME280;49382;-25.924;28.194;2023-02-19T04:47:21;84722.77;;;21.20;53.89
40948;BME280;49382;-25.924;28.194;2023-02-19T04:49:47;84722.19;;;20.78;55.20
40948;BME280;49382;-25.924;28.194;2023-02-19T04:52:13;84725.67;;;21.32;53.43
40948;BME280;49382;-25.924;28.194;2023-02-19T04:54:39;84730.69;;;22.33;51.19
40948;BME280;49382;-25.924;28.194;2023-02-19T04:57:05;84730.00;;;20.80;54.30
40948;BME280;49382;-25.924;28.194;2023-02-19T04:59:31;84729.20;;;21.00;53.99
40948;BME280;49382;-25.924;28.194;2023-02-19T05:01:56;84728.79;;;21.44;53.32
40948;BME280;49382;-25.924;28.194;2023-02-19T05:04:22;84724.94;;;20.56;55.07
40948;BME280;49382;-25.924;28.194;2023-02-19T05:06:48;84721.59;;;20.73;55.02
40948;BME280;49382;-25.924;28.194;2023-02-19T05:09:13;84725.94;;;21.18;53.63
40948;BME280;49382;-25.924;28.194;2023-02-19T05:11:39;84728.66;;;20.91;54.24
40948;BME280;49382;-25.924;28.194;2023-02-19T05:14:05;84728.85;;;21.12;54.74
40948;BME280;49382;-25.924;28.194;2023-02-19T05:16:30;84731.34;;;21.49;53.80
40948;BME280;49382;-25.924;28.194;2023-02-19T05:18:55;84734.14;;;21.29;54.51
40948;BME280;49382;-25.924;28.194;2023-02-19T05:21:21;84735.82;;;21.30;53.50
40948;BME280;49382;-25.924;28.194;2023-02-19T05:23:47;84737.22;;;20.48;55.34
40948;BME280;49382;-25.924;28.194;2023-02-19T05:26:15;84736.42;;;21.10;55.49
40948;BME280;49382;-25.924;28.194;2023-02-19T05:28:39;84738.00;;;20.45;55.69
40948;BME280;49382;-25.924;28.194;2023-02-19T05:31:06;84738.12;;;20.96;55.06
40948;BME280;49382;-25.924;28.194;2023-02-19T05:33:30;84741.25;;;20.85;56.50
40948;BME280;49382;-25.924;28.194;2023-02-19T05:35:56;84745.10;;;21.28;53.98
40948;BME280;49382;-25.924;28.194;2023-02-19T05:38:22;84749.41;;;20.45;55.69
40948;BME280;49382;-25.924;28.194;2023-02-19T05:40:48;84749.79;;;21.09;54.31
40948;BME280;49382;-25.924;28.194;2023-02-19T05:43:13;84754.53;;;20.30;56.04
40948;BME280;49382;-25.924;28.194;2023-02-19T05:45:40;84757.38;;;21.62;53.87
40948;BME280;49382;-25.924;28.194;2023-02-19T05:48:06;84754.37;;;20.70;55.45
40948;BME280;49382;-25.924;28.194;2023-02-19T05:50:33;84753.41;;;20.54;55.88
40948;BME280;49382;-25.924;28.194;2023-02-19T05:52:58;84750.52;;;20.63;55.78
40948;BME280;49382;-25.924;28.194;2023-02-19T05:55:22;84750.52;;;20.77;55.13
40948;BME280;49382;-25.924;28.194;2023-02-19T05:57:48;84750.33;;;20.61;56.42
40948;BME280;49382;-25.924;28.194;2023-02-19T06:00:16;84750.47;;;20.77;53.95
40948;BME280;49382;-25.924;28.194;2023-02-19T06:02:39;84753.91;;;20.72;53.71
40948;BME280;49382;-25.924;28.194;2023-02-19T06:05:07;84759.96;;;21.76;52.28
40948;BME280;49382;-25.924;28.194;2023-02-19T06:07:31;84756.28;;;21.19;52.96
40948;BME280;49382;-25.924;28.194;2023-02-19T06:09:57;84756.32;;;20.75;53.09
40948;BME280;49382;-25.924;28.194;2023-02-19T06:12:23;84756.16;;;21.42;52.41
40948;BME280;49382;-25.924;28.194;2023-02-19T06:14:49;84751.38;;;20.93;52.97
40948;BME280;49382;-25.924;28.194;2023-02-19T06:17:14;84749.99;;;20.70;52.58
40948;BME280;49382;-25.924;28.194;2023-02-19T06:19:40;84749.12;;;20.87;52.64
40948;BME280;49382;-25.924;28.194;2023-02-19T06:22:06;84750.79;;;21.48;51.61
40948;BME280;49382;-25.924;28.194;2023-02-19T06:24:31;84745.83;;;21.56;51.34
40948;BME280;49382;-25.924;28.194;2023-02-19T06:26:57;84746.99;;;20.93;51.30
40948;BME280;49382;-25.924;28.194;2023-02-19T06:29:23;84751.02;;;20.86;50.93
40948;BME280;49382;-25.924;28.194;2023-02-19T06:31:48;84752.46;;;20.58;52.04
40948;BME280;49382;-25.924;28.194;2023-02-19T06:34:14;84756.65;;;21.33;50.74
40948;BME280;49382;-25.924;28.194;2023-02-19T06:36:40;84756.16;;;20.87;51.54
40948;BME280;49382;-25.924;28.194;2023-02-19T06:39:06;84759.40;;;20.88;53.34
40948;BME280;49382;-25.924;28.194;2023-02-19T06:41:32;84758.67;;;21.15;51.66
40948;BME280;49382;-25.924;28.194;2023-02-19T06:43:57;84761.90;;;20.97;52.56
40948;BME280;49382;-25.924;28.194;2023-02-19T06:46:23;84769.51;;;21.37;52.25
40948;BME280;49382;-25.924;28.194;2023-02-19T06:48:49;84773.70;;;21.67;51.19
40948;BME280;49382;-25.924;28.194;2023-02-19T06:51:16;84776.49;;;21.49;51.71
40948;BME280;49382;-25.924;28.194;2023-02-19T06:53:40;84780.03;;;21.45;52.00
40948;BME280;49382;-25.924;28.194;2023-02-19T06:56:18;84780.64;;;21.85;50.95
40948;BME280;49382;-25.924;28.194;2023-02-19T06:58:31;84781.17;;;21.60;51.49
40948;BME280;49382;-25.924;28.194;2023-02-19T07:00:57;84779.48;;;21.51;52.16
40948;BME280;49382;-25.924;28.194;2023-02-19T07:03:22;84783.34;;;21.28;51.50
40948;BME280;49382;-25.924;28.194;2023-02-19T07:05:48;84785.96;;;21.48;51.97
40948;BME280;49382;-25.924;28.194;2023-02-19T07:08:14;84781.93;;;21.76;51.51
40948;BME280;49382;-25.924;28.194;2023-02-19T07:10:40;84782.60;;;21.48;51.51
40948;BME280;49382;-25.924;28.194;2023-02-19T07:13:05;84779.14;;;21.23;51.11
40948;BME280;49382;-25.924;28.194;2023-02-19T07:15:31;84778.16;;;21.34;50.92
40948;BME280;49382;-25.924;28.194;2023-02-19T07:17:58;84780.86;;;21.59;52.61
40948;BME280;49382;-25.924;28.194;2023-02-19T07:20:23;84783.97;;;22.10;50.93
40948;BME280;49382;-25.924;28.194;2023-02-19T07:22:48;84783.55;;;22.25;50.10
40948;BME280;49382;-25.924;28.194;2023-02-19T07:25:14;84783.36;;;22.35;49.71
40948;BME280;49382;-25.924;28.194;2023-02-19T07:27:40;84784.12;;;21.88;50.63
40948;BME280;49382;-25.924;28.194;2023-02-19T07:30:06;84783.48;;;21.62;50.52
40948;BME280;49382;-25.924;28.194;2023-02-19T07:32:31;84785.25;;;21.91;49.73
40948;BME280;49382;-25.924;28.194;2023-02-19T07:34:57;84781.95;;;22.07;49.37
40948;BME280;49382;-25.924;28.194;2023-02-19T07:37:23;84780.51;;;21.52;50.53
40948;BME280;49382;-25.924;28.194;2023-02-19T07:39:49;84780.36;;;21.85;49.59
40948;BME280;49382;-25.924;28.194;2023-02-19T07:42:14;84777.81;;;22.12;49.50
40948;BME280;49382;-25.924;28.194;2023-02-19T07:44:40;84775.32;;;21.70;50.29
40948;BME280;49382;-25.924;28.194;2023-02-19T07:47:06;84774.22;;;21.46;50.97
40948;BME280;49382;-25.924;28.194;2023-02-19T07:49:31;84775.57;;;22.34;48.23
40948;BME280;49382;-25.924;28.194;2023-02-19T07:51:57;84774.76;;;21.87;49.16
40948;BME280;49382;-25.924;28.194;2023-02-19T07:54:23;84773.46;;;21.78;49.97
40948;BME280;49382;-25.924;28.194;2023-02-19T07:56:49;84776.48;;;22.84;48.82
40948;BME280;49382;-25.924;28.194;2023-02-19T07:59:15;84773.46;;;22.83;49.25
40948;BME280;49382;-25.924;28.194;2023-02-19T08:01:40;84768.43;;;22.42;49.24
40948;BME280;49382;-25.924;28.194;2023-02-19T08:04:06;84765.71;;;22.91;48.04
40948;BME280;49382;-25.924;28.194;2023-02-19T08:06:32;84765.00;;;23.40;47.73
40948;BME280;49382;-25.924;28.194;2023-02-19T08:08:57;84764.01;;;22.75;47.03
40948;BME280;49382;-25.924;28.194;2023-02-19T08:11:23;84762.35;;;22.30;48.93
40948;BME280;49382;-25.924;28.194;2023-02-19T08:13:49;84766.80;;;22.98;47.10
40948;BME280;49382;-25.924;28.194;2023-02-19T08:16:15;84764.04;;;23.08;46.76
40948;BME280;49382;-25.924;28.194;2023-02-19T08:18:40;84760.81;;;23.09;46.84
40948;BME280;49382;-25.924;28.194;2023-02-19T08:21:06;84760.57;;;22.69;47.05
40948;BME280;49382;-25.924;28.194;2023-02-19T08:23:32;84759.02;;;22.49;47.17
40948;BME280;49382;-25.924;28.194;2023-02-19T08:25:59;84759.22;;;22.71;47.54
40948;BME280;49382;-25.924;28.194;2023-02-19T08:28:24;84760.22;;;22.83;48.33
40948;BME280;49382;-25.924;28.194;2023-02-19T08:30:49;84756.18;;;23.41;47.28
40948;BME280;49382;-25.924;28.194;2023-02-19T08:33:16;84754.26;;;23.66;45.28
40948;BME280;49382;-25.924;28.194;2023-02-19T08:35:41;84750.91;;;23.56;45.81
40948;BME280;49382;-25.924;28.194;2023-02-19T08:38:07;84748.59;;;23.73;48.52
40948;BME280;49382;-25.924;28.194;2023-02-19T08:40:32;84745.20;;;23.54;46.14
40948;BME280;49382;-25.924;28.194;2023-02-19T08:43:02;84737.81;;;23.87;47.28
40948;BME280;49382;-25.924;28.194;2023-02-19T08:45:23;84733.38;;;24.85;44.26
40948;BME280;49382;-25.924;28.194;2023-02-19T08:47:49;84726.62;;;24.65;43.35
40948;BME280;49382;-25.924;28.194;2023-02-19T08:50:15;84729.84;;;24.36;43.86
40948;BME280;49382;-25.924;28.194;2023-02-19T08:52:40;84729.80;;;24.68;46.65
40948;BME280;49382;-25.924;28.194;2023-02-19T08:55:07;84725.99;;;24.73;44.30
40948;BME280;49382;-25.924;28.194;2023-02-19T08:57:35;84729.57;;;24.32;44.57
40948;BME280;49382;-25.924;28.194;2023-02-19T08:59:57;84730.06;;;23.73;45.38
40948;BME280;49382;-25.924;28.194;2023-02-19T09:02:23;84731.88;;;23.68;44.51
40948;BME280;49382;-25.924;28.194;2023-02-19T09:04:48;84726.86;;;25.26;41.90
40948;BME280;49382;-25.924;28.194;2023-02-19T09:07:13;84729.16;;;25.17;44.16
40948;BME280;49382;-25.924;28.194;2023-02-19T09:09:39;84730.17;;;25.62;42.61
40948;BME280;49382;-25.924;28.194;2023-02-19T09:12:05;84726.48;;;24.28;42.07
40948;BME280;49382;-25.924;28.194;2023-02-19T09:14:31;84722.41;;;25.39;42.61
40948;BME280;49382;-25.924;28.194;2023-02-19T09:16:55;84721.73;;;24.81;43.45
40948;BME280;49382;-25.924;28.194;2023-02-19T09:19:20;84724.02;;;24.25;45.52
40948;BME280;49382;-25.924;28.194;2023-02-19T09:21:46;84716.56;;;24.45;43.95
40948;BME280;49382;-25.924;28.194;2023-02-19T09:24:11;84717.10;;;24.58;43.41
40948;BME280;49382;-25.924;28.194;2023-02-19T09:26:36;84714.59;;;24.69;44.02
40948;BME280;49382;-25.924;28.194;2023-02-19T09:29:03;84714.58;;;25.44;42.90
40948;BME280;49382;-25.924;28.194;2023-02-19T09:31:28;84713.54;;;24.47;43.99
40948;BME280;49382;-25.924;28.194;2023-02-19T09:33:52;84717.47;;;23.84;46.25
40948;BME280;49382;-25.924;28.194;2023-02-19T09:36:18;84710.96;;;23.62;48.29
40948;BME280;49382;-25.924;28.194;2023-02-19T09:38:43;84708.26;;;23.16;47.64
40948;BME280;49382;-25.924;28.194;2023-02-19T09:41:14;84710.48;;;24.10;47.45
40948;BME280;49382;-25.924;28.194;2023-02-19T09:43:34;84704.23;;;24.01;45.29
40948;BME280;49382;-25.924;28.194;2023-02-19T09:46:03;84702.59;;;24.10;45.99
40948;BME280;49382;-25.924;28.194;2023-02-19T09:48:25;84698.94;;;24.19;45.25
40948;BME280;49382;-25.924;28.194;2023-02-19T09:50:51;84696.05;;;23.52;45.47
40948;BME280;49382;-25.924;28.194;2023-02-19T09:53:20;84689.67;;;24.41;44.54
40948;BME280;49382;-25.924;28.194;2023-02-19T09:55:43;84684.50;;;24.26;44.01
40948;BME280;49382;-25.924;28.194;2023-02-19T09:58:18;84684.61;;;23.47;44.65
40948;BME280;49382;-25.924;28.194;2023-02-19T10:00:33;84678.37;;;24.08;44.69
40948;BME280;49382;-25.924;28.194;2023-02-19T10:03:04;84671.88;;;24.25;44.36
40948;BME280;49382;-25.924;28.194;2023-02-19T10:05:23;84667.47;;;24.35;44.50
40948;BME280;49382;-25.924;28.194;2023-02-19T10:07:51;84668.58;;;25.15;43.65
40948;BME280;49382;-25.924;28.194;2023-02-19T10:10:20;84662.23;;;24.93;43.45
40948;BME280;49382;-25.924;28.194;2023-02-19T10:12:42;84654.20;;;24.28;44.58
40948;BME280;49382;-25.924;28.194;2023-02-19T10:15:09;84652.60;;;25.41;42.86
40948;BME280;49382;-25.924;28.194;2023-02-19T10:17:32;84650.02;;;25.68;42.18
40948;BME280;49382;-25.924;28.194;2023-02-19T10:19:57;84648.23;;;26.72;39.80
40948;BME280;49382;-25.924;28.194;2023-02-19T10:22:21;84647.52;;;27.19;39.70
40948;BME280;49382;-25.924;28.194;2023-02-19T10:24:50;84641.35;;;25.39;42.53
40948;BME280;49382;-25.924;28.194;2023-02-19T10:27:13;84641.33;;;25.11;42.71
40948;BME280;49382;-25.924;28.194;2023-02-19T10:29:37;84637.82;;;24.68;43.69
40948;BME280;49382;-25.924;28.194;2023-02-19T10:34:28;84639.87;;;24.96;45.02
40948;BME280;49382;-25.924;28.194;2023-02-19T10:36:53;84641.49;;;24.96;46.46
40948;BME280;49382;-25.924;28.194;2023-02-19T10:39:30;84637.78;;;24.15;48.68
40948;BME280;49382;-25.924;28.194;2023-02-19T10:41:45;84629.50;;;24.03;48.56
40948;BME280;49382;-25.924;28.194;2023-02-19T10:44:14;84628.96;;;22.91;52.11
40948;BME280;49382;-25.924;28.194;2023-02-19T10:46:41;84618.80;;;24.13;48.34
40948;BME280;49382;-25.924;28.194;2023-02-19T10:49:03;84616.38;;;26.56;44.60
40948;BME280;49382;-25.924;28.194;2023-02-19T10:51:33;84613.53;;;27.03;43.56
40948;BME280;49382;-25.924;28.194;2023-02-19T10:56:24;84604.93;;;23.56;50.49
40948;BME280;49382;-25.924;28.194;2023-02-19T10:58:43;84604.46;;;24.33;49.99
40948;BME280;49382;-25.924;28.194;2023-02-19T11:01:14;84595.26;;;24.57;49.44
40948;BME280;49382;-25.924;28.194;2023-02-19T11:03:33;84591.78;;;25.09;47.12
40948;BME280;49382;-25.924;28.194;2023-02-19T11:06:02;84593.47;;;26.52;46.66
40948;BME280;49382;-25.924;28.194;2023-02-19T11:08:25;84591.20;;;25.83;44.61
40948;BME280;49382;-25.924;28.194;2023-02-19T11:10:51;84587.29;;;25.92;43.42
40948;BME280;49382;-25.924;28.194;2023-02-19T11:13:25;84582.18;;;24.92;47.92
40948;BME280;49382;-25.924;28.194;2023-02-19T11:15:42;84573.82;;;24.66;48.38
40948;BME280;49382;-25.924;28.194;2023-02-19T11:18:16;84567.79;;;24.45;48.31
40948;BME280;49382;-25.924;28.194;2023-02-19T11:20:33;84565.72;;;24.82;47.29
40948;BME280;49382;-25.924;28.194;2023-02-19T11:23:03;84564.92;;;24.98;46.96
40948;BME280;49382;-25.924;28.194;2023-02-19T11:25:25;84564.76;;;25.93;44.70
40948;BME280;49382;-25.924;28.194;2023-02-19T11:27:54;84561.60;;;24.43;45.82
40948;BME280;49382;-25.924;28.194;2023-02-19T11:30:29;84559.24;;;25.04;44.10
40948;BME280;49382;-25.924;28.194;2023-02-19T11:32:41;84557.06;;;25.94;44.13
40948;BME280;49382;-25.924;28.194;2023-02-19T11:35:15;84556.67;;;26.08;42.94
40948;BME280;49382;-25.924;28.194;2023-02-19T11:37:33;84551.80;;;26.06;42.34
40948;BME280;49382;-25.924;28.194;2023-02-19T11:39:58;84546.59;;;25.34;43.01
40948;BME280;49382;-25.924;28.194;2023-02-19T11:42:34;84543.02;;;26.64;41.50
40948;BME280;49382;-25.924;28.194;2023-02-19T11:44:58;84539.40;;;27.13;40.78
40948;BME280;49382;-25.924;28.194;2023-02-19T11:49:46;84533.31;;;25.31;42.23
40948;BME280;49382;-25.924;28.194;2023-02-19T11:52:19;84533.67;;;25.80;44.23
40948;BME280;49382;-25.924;28.194;2023-02-19T11:54:45;84536.20;;;26.31;41.99
40948;BME280;49382;-25.924;28.194;2023-02-19T11:57:04;84531.26;;;24.73;44.27
40948;BME280;49382;-25.924;28.194;2023-02-19T11:59:30;84530.19;;;24.86;44.31
40948;BME280;49382;-25.924;28.194;2023-02-19T12:01:58;84524.92;;;25.37;43.65
40948;BME280;49382;-25.924;28.194;2023-02-19T12:06:49;84517.30;;;24.58;44.34
40948;BME280;49382;-25.924;28.194;2023-02-19T12:09:16;84512.35;;;25.24;43.64
40948;BME280;49382;-25.924;28.194;2023-02-19T12:11:39;84512.40;;;25.93;43.81
40948;BME280;49382;-25.924;28.194;2023-02-19T12:16:28;84508.08;;;26.57;41.80
40948;BME280;49382;-25.924;28.194;2023-02-19T12:19:03;84503.44;;;26.23;40.85
40948;BME280;49382;-25.924;28.194;2023-02-19T12:21:22;84494.40;;;25.27;43.23
40948;BME280;49382;-25.924;28.194;2023-02-19T12:26:14;84488.97;;;24.31;44.12
40948;BME280;49382;-25.924;28.194;2023-02-19T12:31:06;84493.50;;;27.03;40.39
40948;BME280;49382;-25.924;28.194;2023-02-19T12:35:59;84497.11;;;26.22;44.17
40948;BME280;49382;-25.924;28.194;2023-02-19T12:38:21;84493.03;;;25.73;44.09
40948;BME280;49382;-25.924;28.194;2023-02-19T12:40:49;84487.64;;;25.22;45.12
40948;BME280;49382;-25.924;28.194;2023-02-19T12:43:12;84482.81;;;24.95;43.40
40948;BME280;49382;-25.924;28.194;2023-02-19T12:45:36;84481.47;;;24.10;43.45
40948;BME280;49382;-25.924;28.194;2023-02-19T12:48:00;84478.53;;;24.60;42.19
40948;BME280;49382;-25.924;28.194;2023-02-19T12:50:25;84475.93;;;24.98;42.24
40948;BME280;49382;-25.924;28.194;2023-02-19T12:52:51;84474.73;;;24.69;43.44
40948;BME280;49382;-25.924;28.194;2023-02-19T12:55:20;84473.24;;;25.48;42.35